Racecast

Seth Murphy

Temperance Bedford (MI) · 12 · SECMI D1MONROE · Compare head to head

Athlete rating 111.4 2018 XC season
Best race 118.4 XC
Races 73
Seasons 5 2014 — 2019

RankedNation #51670·MI #2116·MI D1 #1362·SEC #151·Team #54 ?

Rating scale ?
Speed rating — all races

Cross Country

XC speed rating

2018 XC 110.5

Temperance Bedford (MI) · Grade 12

Date Meet Event Result Place Rating Difficulty PR/SR Flags
2018-10-27 Lake Erie Metro Park OFFICIAL 5000m 19:14.7 38th · 8th on team 108.5 +0.007
2018-10-18 Hudson Mills Metropark - OFFICIAL 5000m 18:40.9 65th · 5th on team 109.9 -0.006 SR CSR
2018-10-13 Munson Park 5000m 18:46.3 28th · 9th on team 110.6 +0.007 ★CR CSR
2018-10-09 Indian Creek OFFICIAL 5000m 19:03 5th · 5th on team 111.1 +0.004 CSR
2018-10-06 Portage West MS 5000m 18:48.8 87th · 4th on team 110.1 -0.003 CSR
2018-09-29 Lake Erie Metro Park OFFICIAL 5000m 18:48 24th · 6th on team 111.0 +0.007 CSR
2018-09-21 Ella Sharp Park OFFICIAL 5000m 18:42 22nd · 4th on team 111.9 -0.001 SR CSR
2018-09-06 Willow Metropark OFFICIAL 5000m 18:46.6 83rd · 8th on team 109.3 -0.003 ★CR SR CSR
2018-08-31 Oakland University 4000m 14:44.7 83rd · 6th on team 112.1 +0.013 SR CSR RSR

2017 XC 111.0

Temperance Bedford (MI) · Grade 11

Date Meet Event Result Place Rating Difficulty PR/SR Flags
2017-10-28 Lake Erie Metro Park OFFICIAL 5000m 18:29.9 31st · 5th on team 112.1 +0.007
2017-10-19 Hudson Mills Metropark - OFFICIAL 5000m 18:33.1 63rd · 4th on team 111.2 -0.006 CSR
2017-10-10 Indian Creek OFFICIAL 5000m 18:28.6 4th · 4th on team 112.4 +0.004 ★CR CSR
2017-10-07 Portage West MS 5000m 18:58.2 98th · 3rd on team 109.7 -0.003 CSR
2017-09-30 Lake Erie Metro Park OFFICIAL 5000m 18:04.5 17th · 3rd on team 114.1 +0.007 ★CR SR CSR RSR
2017-09-22 Ella Sharp Park OFFICIAL 5000m 19:06.3 9th · 6th on team 110.2 -0.001 CSR
2017-09-12 Hudson Mills Metropark - OFFICIAL 5000m 18:54.1 94th · 10th on team 108.6 -0.006 CSR
2017-09-09 Hedges Boyer Park 5000m 18:13.3 69th · 3rd on team 113.0 -0.003 ★CR SR CSR RSR
2017-09-01 Oakland University 4000m 14:38.9 80th · 10th on team 110.1 +0.013 SR CSR RSR
2017-08-26 Walsh Park 5000m 19:02.9 44th · 10th on team 108.7 +0.012 ★CR SR CSR RSR

2016 XC 112.1

Temperance Bedford (MI) · Grade 10

Date Meet Event Result Place Rating Difficulty PR/SR Flags
2016-11-05 Michigan International Speedway (MIS) 5000m 18:36.7 249th · 6th on team 110.9 -0.006 ★CR CSR
2016-10-29 Lake Erie Metro Park OFFICIAL 5000m 18:28.1 14th · 1st on team 112.8 +0.007 CR CSR
2016-10-20 Hudson Mills Metropark - OFFICIAL 5000m 18:08.4 15th · 1st on team 112.8 -0.006 ★CR CSR
2016-10-15 Hudson Mills Metropark - OFFICIAL 5000m 18:37.8 88th · 10th on team 110.9 -0.006 CR CSR
2016-10-08 Portage West MS 5000m 17:44 182nd · 4th on team 116.2 -0.003 ★PR ★CR SR CSR RSR
2016-09-27 Pioneer HS 5000m 19:05 44th · 9th on team 111.1 +0.018 ★CR CSR
2016-09-24 Ella Sharp Park OFFICIAL 5000m 17:50.1 103rd · 5th on team 115.6 -0.001 PR ★CR SR CSR RSR
2016-09-17 Springfield Oaks County Park OFFICIAL 5000m 19:48 25th · 1st on team 109.2 +0.019 ★CR CSR
2016-09-13 Heritage Park (Adrian) OFFICIAL 5000m 18:58.8 68th · 7th on team 112.7 +0.035 ★CR CSR
2016-09-10 Hedges Boyer Park 5000m 18:40 208th · 6th on team 110.9 -0.003 PR CR SR CSR
2016-09-02 Oakland University 4000m 14:18.6 50th · 5th on team 114.1 +0.013 ★PR ★CR SR CSR RSR
2016-08-25 Heritage Park (Adrian) OFFICIAL 5000m 19:43.1 5th · 4th on team 108.4 +0.035 PR CR SR CSR RSR

2014 XC 105.8

Temperance Bedford (MI) · Grade 8

Date Meet Event Result Place Rating Difficulty PR/SR Flags
2014-10-11 Munson Park 2500m 12:36.7 20th · 5th on team 93.1 ★PR ★CR SR CSR
2014-10-04 Fostoria HS 3200m 13:00.8 47th · 6th on team 118.4 +0.031 ★CR CSR
2014-09-27 Pearson's Metro Park 3200m 12:44.7 29th · 5th on team 118.4 -0.005 ★CR CSR
2014-09-24 Hudson Mills Metropark - OFFICIAL 2735m 14:08.2 66th · 10th on team 93.0 ★PR ★CR SR CSR
2014-09-17 Indian Creek OFFICIAL 2500m 12:50.8 5th · 5th on team 91.1 PR ★CR SR CSR
2014-09-06 Hedges Boyer Park 3200m 12:43.1 78th · 4th on team 118.4 +0.015 ★PR ★CR ★R SR CSR RSR
2014-08-27 Indian Creek OFFICIAL 3200m 13:46 3rd · 3rd on team 108.4 -0.001 PR ★CR R SR CSR RSR

Track & Field

TF speed rating

2019 TF

Temperance Bedford (MI) · Grade 12

Date Meet Event Result Place Rating Difficulty PR/SR Flags
2019-03-23 Bedford @ Ida Scrimmage 100m 12.36 3rd · 2nd on team -0.014 SR
2019-03-23 Bedford @ Ida Scrimmage 300mh 44.72 3rd · 3rd on team -0.014 SR

2018 TF

Temperance Bedford (MI) · Grade 11

Date Meet Event Result Place Rating Difficulty PR/SR Flags
2018-05-18 MHSAA LP Region 03-1 @ Saline 300mh 43.39 7th · 2nd on team -0.033
2018-05-11 SEC Red Championship 300mh 42.18 3rd · 1st on team -0.024 ★PR SR
2018-05-07 SEC Red: Huron @ Bedford 300mh 43.74 2nd · 2nd on team -0.026
2018-05-07 SEC Red: Huron @ Bedford 200m 24.44 2nd · 2nd on team -0.026 ★PR SR
2018-05-07 SEC Red: Huron @ Bedford 100m 12.34 4th · 4th on team -0.026
2018-05-05 Fremont Invitational 300mh 43.99 4th · 2nd on team -0.026
2018-05-01 SEC Red: Bedford & Skyline @ Monroe 100m 12.1 8th · 3rd on team -0.022 SR
2018-04-24 Saline/Bedford Dual 300mh 44.87 3rd · 2nd on team -0.033
2018-04-24 Saline/Bedford Dual 100m 12.24 10th · 4th on team -0.033
2018-04-21 Whitmore Lake HS Invite 300mh 42.97 4th · 1st on team -0.016 PR SR
2018-04-21 Whitmore Lake HS Invite 100m 12.26 16th · 2nd on team -0.016
2018-04-10 SEC Red Division - Pioneer @ Bedford 100m 12.24 3rd · 3rd on team -0.026 SR
2018-04-10 SEC Red Division - Pioneer @ Bedford 400m 56.54 2nd · 2nd on team -0.026 SR

2016 TF

Temperance Bedford (MI) · Grade 9

Date Meet Event Result Place Rating Difficulty PR/SR Flags
2016-05-26 Beck Freshman Invitational 400m 54.44 1st · 1st on team -0.013 ★PR SR
2016-05-26 Beck Freshman Invitational 200m 26.04 2nd · 1st on team -0.013
2016-05-26 Beck Freshman Invitational 110mh 19.14 2nd · 1st on team -0.013
2016-05-18 Eagle Boys Invitational 100m 12.03 9th · 1st on team -0.021 ★PR SR
2016-05-18 Eagle Boys Invitational 110mh 18.08 12th · 1st on team -0.021 ★PR SR
2016-05-18 Eagle Boys Invitational 300mh 45.29 6th · 1st on team -0.021
2016-05-13 SEC Red Division Finals 300mh 45.78 11th · 1st on team -0.021
2016-05-13 SEC Red Division Finals 110mh 18.39 7th · 1st on team -0.021
2016-05-13 SEC Red Division Finals 200m 24.87 12th · 3rd on team -0.021 PR SR
2016-05-03 SEC Tri: Huron/Skyline @ Bedford 110mh 18.49 1st · 1st on team -0.026
2016-05-03 SEC Tri: Huron/Skyline @ Bedford 300mh 44.49 2nd · 1st on team -0.026 PR SR
2016-04-26 Bedford @ Monroe 110mh 18.24 3rd · 1st on team -0.022
2016-04-26 Bedford @ Monroe 300mh 46.44 4th · 1st on team -0.022
2016-04-23 Whitmore Lake HS Invite 110mh 18.82 18th · 1st on team -0.016
2016-04-23 Whitmore Lake HS Invite 300mh 45.13 7th · 1st on team -0.016 PR SR
2016-04-19 Saline @ Bedford 300mh 46.03 5th · 2nd on team -0.026
2016-04-19 Saline @ Bedford 110mh 18.22 3rd · 2nd on team -0.026 PR SR
2016-04-12 SEC: Bedford @ Pioneer 110mh 18.64 3rd · 2nd on team -0.017 PR SR
2016-04-12 SEC: Bedford @ Pioneer 200m 25.6 9th · 5th on team -0.017 PR SR
2016-04-12 SEC: Bedford @ Pioneer 300mh 45.88 3rd · 2nd on team -0.017 PR SR